createdAt,value
2019-01-10T00:00:16.954Z,70.41
2019-01-10T00:00:57.577Z,70.21
2019-01-10T00:01:38.212Z,70.03
2019-01-10T00:02:18.833Z,69.93
2019-01-10T00:02:59.436Z,69.83
2019-01-10T00:03:40.074Z,70.03
2019-01-10T00:04:20.734Z,70.31
2019-01-10T00:05:01.330Z,69.64
2019-01-10T00:05:41.984Z,70.12
2019-01-10T00:06:22.578Z,69.83
2019-01-10T00:07:03.187Z,69.93
2019-01-10T00:07:43.826Z,69.74
2019-01-10T00:08:24.435Z,70.31
2019-01-10T00:09:05.048Z,69.93
2019-01-10T00:09:45.690Z,70.31
2019-01-10T00:10:26.296Z,69.83
2019-01-10T00:11:06.904Z,69.54
2019-01-10T00:11:47.550Z,69.64
2019-01-10T00:12:28.150Z,69.64
2019-01-10T00:13:08.754Z,69.74
2019-01-10T00:13:49.363Z,69.64
2019-01-10T00:14:30.007Z,69.74
2019-01-10T00:15:10.617Z,69.83
2019-01-10T00:15:51.246Z,70.12
2019-01-10T00:16:31.871Z,69.83
2019-01-10T00:17:12.518Z,69.93
2019-01-10T00:17:53.134Z,69.93
2019-01-10T00:18:33.770Z,69.93
2019-01-10T00:19:14.390Z,69.93
2019-01-10T00:19:55.040Z,69.74
2019-01-10T00:20:35.636Z,70.12
2019-01-10T00:21:16.380Z,70.12
2019-01-10T00:21:57.018Z,69.83
2019-01-10T00:22:37.626Z,69.64
2019-01-10T00:23:18.236Z,70.12
2019-01-10T00:23:58.844Z,70.12
2019-01-10T00:24:39.451Z,70.21
2019-01-10T00:25:20.052Z,69.64
2019-01-10T00:26:00.661Z,69.93
2019-01-10T00:26:41.288Z,69.45
2019-01-10T00:27:21.950Z,69.74
2019-01-10T00:28:02.566Z,69.74
2019-01-10T00:28:43.182Z,69.64
2019-01-10T00:29:23.861Z,69.64
2019-01-10T00:30:04.471Z,69.74
2019-01-10T00:30:45.085Z,69.54
2019-01-10T00:31:25.718Z,69.93
2019-01-10T00:32:06.326Z,69.54
2019-01-10T00:32:46.940Z,69.74
2019-01-10T00:33:27.607Z,69.64
2019-01-10T00:34:08.297Z,69.64
2019-01-10T00:34:49.006Z,69.74
2019-01-10T00:35:29.687Z,69.54
2019-01-10T00:36:10.300Z,69.54
2019-01-10T00:36:51.057Z,69.54
2019-01-10T00:37:31.698Z,69.74
2019-01-10T00:38:12.328Z,69.74
2019-01-10T00:38:52.968Z,69.64
2019-01-10T00:39:33.593Z,69.54
2019-01-10T00:40:14.214Z,69.45
2019-01-10T00:40:54.829Z,69.45
2019-01-10T00:41:35.496Z,69.45
2019-01-10T00:42:16.141Z,69.35
2019-01-10T00:42:56.768Z,69.54
2019-01-10T00:43:37.388Z,69.74
2019-01-10T00:44:18.016Z,69.17
2019-01-10T00:44:58.600Z,69.54
2019-01-10T00:45:39.225Z,69.07
2019-01-10T00:46:19.836Z,69.45
2019-01-10T00:47:00.450Z,69.93
2019-01-10T00:47:41.054Z,69.45
2019-01-10T00:48:21.769Z,69.26
2019-01-10T00:49:02.456Z,69.45
2019-01-10T00:49:43.067Z,69.35
2019-01-10T00:50:23.718Z,69.26
2019-01-10T00:51:04.402Z,68.87
2019-01-10T00:51:45.078Z,68.97
2019-01-10T00:52:25.766Z,68.97
2019-01-10T00:53:06.408Z,68.78
2019-01-10T00:53:47.034Z,68.78
2019-01-10T00:54:27.694Z,68.87
2019-01-10T00:55:08.377Z,68.87
2019-01-10T00:55:48.996Z,68.97
2019-01-10T00:56:29.616Z,68.97
2019-01-10T00:57:10.278Z,68.78
2019-01-10T00:57:50.986Z,68.97
2019-01-10T00:58:31.628Z,68.68
2019-01-10T00:59:12.334Z,68.68
2019-01-10T00:59:52.938Z,68.68
2019-01-10T01:00:33.632Z,68.68
2019-01-10T01:01:14.247Z,68.68
2019-01-10T01:01:54.858Z,68.59
2019-01-10T01:02:35.455Z,68.87
2019-01-10T01:03:16.071Z,69.07
2019-01-10T01:03:56.669Z,68.87
2019-01-10T01:04:37.266Z,68.87
2019-01-10T01:05:17.861Z,69.26
2019-01-10T01:05:58.482Z,68.87
2019-01-10T01:06:39.086Z,69.07
2019-01-10T01:07:19.714Z,68.87
2019-01-10T01:08:00.320Z,69.17
2019-01-10T01:08:40.984Z,68.97
2019-01-10T01:09:21.594Z,68.87
2019-01-10T01:10:02.213Z,69.26
2019-01-10T01:10:42.844Z,69.26
2019-01-10T01:11:23.500Z,68.49
2019-01-10T01:12:04.144Z,69.07
2019-01-10T01:12:44.761Z,68.87
2019-01-10T01:13:25.370Z,68.97
2019-01-10T01:14:05.984Z,68.78
2019-01-10T01:14:46.646Z,68.68
2019-01-10T01:15:27.362Z,68.94
2019-01-10T01:16:08.088Z,69.07
2019-01-10T01:16:48.722Z,68.78
2019-01-10T01:17:29.350Z,68.49
2019-01-10T01:18:09.967Z,68.59
2019-01-10T01:18:50.604Z,68.68
2019-01-10T01:19:31.208Z,68.49
2019-01-10T01:20:11.834Z,68.68
2019-01-10T01:20:52.509Z,68.78
2019-01-10T01:21:33.194Z,68.4
2019-01-10T01:22:13.808Z,68.4
2019-01-10T01:22:54.464Z,68.4
2019-01-10T01:23:35.102Z,68.68
2019-01-10T01:24:15.710Z,68.68
2019-01-10T01:24:56.351Z,68.49
2019-01-10T01:25:36.996Z,68.59
2019-01-10T01:26:17.626Z,68.4
2019-01-10T01:26:58.250Z,68.49
2019-01-10T01:27:38.919Z,68.49
2019-01-10T01:28:19.561Z,68.4
2019-01-10T01:29:00.216Z,68.49
2019-01-10T01:29:40.837Z,68.49
2019-01-10T01:30:21.452Z,68.59
2019-01-10T01:31:02.073Z,68.59
2019-01-10T01:31:42.666Z,68.59
2019-01-10T01:32:23.266Z,68.49
2019-01-10T01:33:03.866Z,68.49
2019-01-10T01:33:44.477Z,68.49
2019-01-10T01:34:25.124Z,68.21
2019-01-10T01:35:05.838Z,68.49
2019-01-10T01:35:46.626Z,68.3
2019-01-10T01:36:27.393Z,68.3
2019-01-10T01:37:08.178Z,68.49
2019-01-10T01:37:48.932Z,68.68
2019-01-10T01:38:29.737Z,68.59
2019-01-10T01:39:10.519Z,68.68
2019-01-10T01:39:51.291Z,68.68
2019-01-10T01:40:32.046Z,68.59
2019-01-10T01:41:12.802Z,68.49
2019-01-10T01:41:53.630Z,68.68
2019-01-10T01:42:34.395Z,68.49
2019-01-10T01:43:15.136Z,68.3
2019-01-10T01:43:55.906Z,68.68
2019-01-10T01:44:36.662Z,68.49
2019-01-10T01:45:17.430Z,68.49
2019-01-10T01:45:58.236Z,68.21
2019-01-10T01:46:38.995Z,68.21
2019-01-10T01:47:19.750Z,67.91
2019-01-10T01:48:00.586Z,68.11
2019-01-10T01:48:41.351Z,68.11
2019-01-10T01:49:22.159Z,68.21
2019-01-10T01:50:02.935Z,67.82
2019-01-10T01:50:43.699Z,68.11
2019-01-10T01:51:24.459Z,68.11
2019-01-10T01:52:05.224Z,68.11
2019-01-10T01:52:45.984Z,68.3
2019-01-10T01:53:26.742Z,68.3
2019-01-10T01:54:07.504Z,67.91
2019-01-10T01:54:48.236Z,67.82
2019-01-10T01:55:29.007Z,68.11
2019-01-10T01:56:09.760Z,68.01
2019-01-10T01:56:50.520Z,68.21
2019-01-10T01:57:31.326Z,68.01
2019-01-10T01:58:12.105Z,68.01
2019-01-10T01:58:52.876Z,68.01
2019-01-10T01:59:33.615Z,68.17
2019-01-10T02:00:14.388Z,68.21
2019-01-10T02:00:55.124Z,68.01
2019-01-10T02:01:35.750Z,68.11
2019-01-10T02:02:16.456Z,68.11
2019-01-10T02:02:57.063Z,68.3
2019-01-10T02:03:37.673Z,68.01
2019-01-10T02:04:18.300Z,68.01
2019-01-10T02:04:58.916Z,68.11
2019-01-10T02:05:39.525Z,68.27
2019-01-10T02:06:20.125Z,68.3
2019-01-10T02:07:00.769Z,68.11
2019-01-10T02:07:41.427Z,68.21
2019-01-10T02:08:22.062Z,68.11
2019-01-10T02:09:02.678Z,68.3
2019-01-10T02:09:43.273Z,68.11
2019-01-10T02:10:23.882Z,68.11
2019-01-10T02:11:04.498Z,68.11
2019-01-10T02:11:45.109Z,68.11
2019-01-10T02:12:25.750Z,68.3
2019-01-10T02:13:06.356Z,68.59
2019-01-10T02:13:46.967Z,68.59
2019-01-10T02:14:27.587Z,68.21
2019-01-10T02:15:08.197Z,68.21
2019-01-10T02:15:48.810Z,68.11
2019-01-10T02:16:29.462Z,67.91
2019-01-10T02:17:10.083Z,67.91
2019-01-10T02:17:50.706Z,68.21
2019-01-10T02:18:31.330Z,68.49
2019-01-10T02:19:11.965Z,68.01
2019-01-10T02:19:52.570Z,68.4
2019-01-10T02:20:33.165Z,68.21
2019-01-10T02:21:13.778Z,67.72
2019-01-10T02:21:54.391Z,67.91
2019-01-10T02:22:34.992Z,67.69
2019-01-10T02:23:15.597Z,67.79
2019-01-10T02:23:56.193Z,67.91
2019-01-10T02:24:36.821Z,67.63
2019-01-10T02:25:17.470Z,67.98
2019-01-10T02:25:58.077Z,67.72
2019-01-10T02:26:38.674Z,67.91
2019-01-10T02:27:19.290Z,67.82
2019-01-10T02:27:59.899Z,67.98
2019-01-10T02:28:40.502Z,68.01
2019-01-10T02:29:21.123Z,67.88
2019-01-10T02:30:01.754Z,67.72
2019-01-10T02:30:42.503Z,67.91
2019-01-10T02:31:22.967Z,67.88
2019-01-10T02:32:03.550Z,67.91
2019-01-10T02:32:44.156Z,67.82
2019-01-10T02:33:24.794Z,67.98
2019-01-10T02:34:05.412Z,67.54
2019-01-10T02:34:46.017Z,68.01
2019-01-10T02:35:26.617Z,67.72
2019-01-10T02:36:07.235Z,67.82
2019-01-10T02:36:47.849Z,67.82
2019-01-10T02:37:28.493Z,67.91
2019-01-10T02:38:09.085Z,67.72
2019-01-10T02:38:49.715Z,67.72
2019-01-10T02:39:30.327Z,67.82
2019-01-10T02:40:10.929Z,67.72
2019-01-10T02:40:51.579Z,67.5
2019-01-10T02:41:32.170Z,67.6
2019-01-10T02:42:12.781Z,67.63
2019-01-10T02:42:53.412Z,67.63
2019-01-10T02:43:34.024Z,67.6
2019-01-10T02:44:14.639Z,67.63
2019-01-10T02:44:55.268Z,68.01
2019-01-10T02:45:35.877Z,67.91
2019-01-10T02:46:16.492Z,67.6
2019-01-10T02:46:57.126Z,67.72
2019-01-10T02:47:37.726Z,67.54
2019-01-10T02:48:19.652Z,67.54
2019-01-10T02:48:58.934Z,67.82
2019-01-10T02:49:39.569Z,67.6
2019-01-10T02:50:20.187Z,67.5
2019-01-10T02:51:00.791Z,67.31
2019-01-10T02:51:41.390Z,67.31
2019-01-10T02:52:22.034Z,67.82
2019-01-10T02:53:02.637Z,67.5
2019-01-10T02:53:43.236Z,67.79
2019-01-10T02:54:23.843Z,67.54
2019-01-10T02:55:04.453Z,67.63
2019-01-10T02:55:45.104Z,67.69
2019-01-10T02:56:25.717Z,67.34
2019-01-10T02:57:06.341Z,67.63
2019-01-10T02:57:46.950Z,67.31
2019-01-10T02:58:27.555Z,67.72
2019-01-10T02:59:08.157Z,67.34
2019-01-10T02:59:48.762Z,67.15
2019-01-10T03:00:31.484Z,67.15
2019-01-10T03:01:09.949Z,67.25
2019-01-10T03:01:50.585Z,67.21
2019-01-10T03:02:31.247Z,67.31
2019-01-10T03:03:11.981Z,67.21
2019-01-10T03:03:52.621Z,67.21
2019-01-10T03:04:33.419Z,67.11
2019-01-10T03:05:13.947Z,67.11
2019-01-10T03:05:54.612Z,67.6
2019-01-10T03:06:35.219Z,66.86
2019-01-10T03:07:15.832Z,66.77
2019-01-10T03:07:56.463Z,67.02
2019-01-10T03:08:37.088Z,66.77
2019-01-10T03:09:17.684Z,67.05
2019-01-10T03:09:58.285Z,67.02
2019-01-10T03:10:38.893Z,67.02
2019-01-10T03:11:19.533Z,66.93
2019-01-10T03:12:00.140Z,67.05
2019-01-10T03:12:40.757Z,66.93
2019-01-10T03:13:21.359Z,66.74
2019-01-10T03:14:01.981Z,66.93
2019-01-10T03:14:42.591Z,66.74
2019-01-10T03:15:23.219Z,67.02
2019-01-10T03:16:03.833Z,66.74
2019-01-10T03:16:44.434Z,67.02
2019-01-10T03:17:25.025Z,67.11
2019-01-10T03:18:05.627Z,67.11
2019-01-10T03:18:46.221Z,67.02
2019-01-10T03:19:26.857Z,67.05
2019-01-10T03:20:07.459Z,67.11
2019-01-10T03:20:48.097Z,66.93
2019-01-10T03:21:28.677Z,67.21
2019-01-10T03:22:09.287Z,66.93
2019-01-10T03:22:49.918Z,67.31
2019-01-10T03:23:30.527Z,66.83
2019-01-10T03:24:11.133Z,67.21
2019-01-10T03:24:51.748Z,67.41
2019-01-10T03:25:32.359Z,66.74
2019-01-10T03:26:12.977Z,66.64
2019-01-10T03:26:53.605Z,66.93
2019-01-10T03:27:34.215Z,66.83
2019-01-10T03:28:14.827Z,67.21
2019-01-10T03:28:55.457Z,66.74
2019-01-10T03:29:36.060Z,66.74
2019-01-10T03:30:16.669Z,66.45
2019-01-10T03:30:57.305Z,66.74
2019-01-10T03:31:37.911Z,66.45
2019-01-10T03:32:18.542Z,66.54
2019-01-10T03:32:59.138Z,66.83
2019-01-10T03:33:39.755Z,66.64
2019-01-10T03:34:20.362Z,66.54
2019-01-10T03:35:01.014Z,66.74
2019-01-10T03:35:41.623Z,66.54
2019-01-10T03:36:22.282Z,66.54
2019-01-10T03:37:02.895Z,66.64
2019-01-10T03:37:43.529Z,66.74
2019-01-10T03:38:24.139Z,66.54
2019-01-10T03:39:04.767Z,66.93
2019-01-10T03:39:45.366Z,66.64
2019-01-10T03:40:25.975Z,66.77
2019-01-10T03:41:06.611Z,67.02
2019-01-10T03:41:47.251Z,66.74
2019-01-10T03:42:27.831Z,66.83
2019-01-10T03:43:08.443Z,66.64
2019-01-10T03:43:49.038Z,66.54
2019-01-10T03:44:34.151Z,66.54
2019-01-10T03:45:10.245Z,66.64
2019-01-10T03:45:50.871Z,66.54
2019-01-10T03:46:31.477Z,66.54
2019-01-10T03:47:12.122Z,66.64
2019-01-10T03:47:52.751Z,66.64
2019-01-10T03:48:33.362Z,66.54
2019-01-10T03:49:13.964Z,66.74
2019-01-10T03:49:54.589Z,66.54
2019-01-10T03:50:37.792Z,66.83
2019-01-10T03:51:15.811Z,66.74
2019-01-10T03:51:56.421Z,66.54
2019-01-10T03:52:37.039Z,66.93
2019-01-10T03:53:17.649Z,66.64
2019-01-10T03:53:58.309Z,66.74
2019-01-10T03:54:38.929Z,66.93
2019-01-10T03:55:19.629Z,66.74
2019-01-10T03:56:00.167Z,66.83
2019-01-10T03:56:40.787Z,66.74
2019-01-10T03:57:21.411Z,66.64
2019-01-10T03:58:02.033Z,66.74
2019-01-10T03:58:42.645Z,66.83
2019-01-10T03:59:23.259Z,66.74
2019-01-10T04:00:03.911Z,67.02
2019-01-10T04:00:44.521Z,66.64
2019-01-10T04:01:25.136Z,67.02
2019-01-10T04:02:05.749Z,66.74
2019-01-10T04:02:46.367Z,66.54
2019-01-10T04:03:26.993Z,66.74
2019-01-10T04:04:07.629Z,67.02
2019-01-10T04:04:48.251Z,67.11
2019-01-10T04:05:28.875Z,66.35
2019-01-10T04:06:09.477Z,66.25
2019-01-10T04:06:50.071Z,66.45
2019-01-10T04:07:30.701Z,66.06
2019-01-10T04:08:11.364Z,66.06
2019-01-10T04:08:51.977Z,66.45
2019-01-10T04:09:32.607Z,66.25
2019-01-10T04:10:13.221Z,66.35
2019-01-10T04:10:53.817Z,66.25
2019-01-10T04:11:34.455Z,66.35
2019-01-10T04:12:15.149Z,66.25
2019-01-10T04:12:55.779Z,66.45
2019-01-10T04:13:36.383Z,66.25
2019-01-10T04:14:17.007Z,66.35
2019-01-10T04:14:57.616Z,66.35
2019-01-10T04:15:38.232Z,66.45
2019-01-10T04:16:18.864Z,66.45
2019-01-10T04:16:59.474Z,66.54
2019-01-10T04:17:40.085Z,66.64
2019-01-10T04:18:20.689Z,66.35
2019-01-10T04:19:01.300Z,66.74
2019-01-10T04:19:41.895Z,66.74
2019-01-10T04:20:22.516Z,66.25
2019-01-10T04:21:03.133Z,66.25
2019-01-10T04:21:43.769Z,66.45
2019-01-10T04:22:24.407Z,65.88
2019-01-10T04:23:05.029Z,66.25
2019-01-10T04:23:45.637Z,66.35
2019-01-10T04:24:26.296Z,65.58
2019-01-10T04:25:06.913Z,66.06
2019-01-10T04:25:47.524Z,66.06
2019-01-10T04:26:28.122Z,66.25
2019-01-10T04:27:08.743Z,66.06
2019-01-10T04:27:49.349Z,66.06
2019-01-10T04:28:29.979Z,65.68
2019-01-10T04:29:10.586Z,65.78
2019-01-10T04:29:51.205Z,65.88
2019-01-10T04:30:31.825Z,65.68
2019-01-10T04:31:12.471Z,65.49
2019-01-10T04:31:53.146Z,65.88
2019-01-10T04:32:33.777Z,66.45
2019-01-10T04:33:14.388Z,65.97
2019-01-10T04:33:54.985Z,66.35
2019-01-10T04:34:35.614Z,65.97
2019-01-10T04:35:16.217Z,65.97
2019-01-10T04:35:56.935Z,66.06
2019-01-10T04:36:37.542Z,66.06
2019-01-10T04:37:18.149Z,66.35
2019-01-10T04:37:58.759Z,66.06
2019-01-10T04:38:39.360Z,66.06
2019-01-10T04:39:19.957Z,66.06
2019-01-10T04:40:00.557Z,66.06
2019-01-10T04:40:41.177Z,66.16
2019-01-10T04:41:21.775Z,65.97
2019-01-10T04:42:02.391Z,65.97
2019-01-10T04:42:43.071Z,66.06
2019-01-10T04:43:23.655Z,66.06
2019-01-10T04:44:07.100Z,66.06
2019-01-10T04:44:44.878Z,65.88
2019-01-10T04:45:25.491Z,66.16
2019-01-10T04:46:06.098Z,66.16
2019-01-10T04:46:46.705Z,65.78
2019-01-10T04:47:27.319Z,66.35
2019-01-10T04:48:07.935Z,66.35
2019-01-10T04:48:48.551Z,66.35
2019-01-10T04:49:29.191Z,66.35
2019-01-10T04:50:09.851Z,66.25
2019-01-10T04:50:50.475Z,66.16
2019-01-10T04:51:31.066Z,66.25
2019-01-10T04:52:11.673Z,66.16
2019-01-10T04:52:52.287Z,66.25
2019-01-10T04:53:32.914Z,66.25
2019-01-10T04:54:13.582Z,66.25
2019-01-10T04:54:55.943Z,65.97
2019-01-10T04:55:34.809Z,66.16
2019-01-10T04:56:15.413Z,66.54
2019-01-10T04:56:56.043Z,66.16
2019-01-10T04:57:36.642Z,66.06
2019-01-10T04:58:17.252Z,66.16
2019-01-10T04:58:57.862Z,66.54
2019-01-10T04:59:38.476Z,66.35
2019-01-10T05:00:19.119Z,65.97
2019-01-10T05:00:59.723Z,66.45
2019-01-10T05:01:40.337Z,66.16
2019-01-10T05:02:20.929Z,66.35
2019-01-10T05:03:01.573Z,66.25
2019-01-10T05:03:42.169Z,65.78
2019-01-10T05:04:22.776Z,66.16
2019-01-10T05:05:03.385Z,65.58
2019-01-10T05:05:44.197Z,65.39
2019-01-10T05:06:24.827Z,65.58
2019-01-10T05:07:05.425Z,65.49
2019-01-10T05:07:46.032Z,65.49
2019-01-10T05:08:26.635Z,65.58
2019-01-10T05:09:07.247Z,65.78
2019-01-10T05:09:47.869Z,65.49
2019-01-10T05:10:28.489Z,65.68
2019-01-10T05:11:11.327Z,65.68
2019-01-10T05:11:49.758Z,65.78
2019-01-10T05:12:30.381Z,65.97
2019-01-10T05:13:11.017Z,65.58
2019-01-10T05:13:51.629Z,65.39
2019-01-10T05:14:32.255Z,65.58
2019-01-10T05:15:12.853Z,65.58
2019-01-10T05:15:53.632Z,65.78
2019-01-10T05:16:34.214Z,65.49
2019-01-10T05:17:14.837Z,65.78
2019-01-10T05:17:55.471Z,65.58
2019-01-10T05:18:36.122Z,65.58
2019-01-10T05:19:16.731Z,65.78
2019-01-10T05:19:57.337Z,65.78
2019-01-10T05:20:37.951Z,65.68
2019-01-10T05:21:18.563Z,65.49
2019-01-10T05:21:59.167Z,65.68
2019-01-10T05:22:39.787Z,65.88
2019-01-10T05:23:22.166Z,65.68
2019-01-10T05:24:01.021Z,65.97
2019-01-10T05:24:41.631Z,65.78
2019-01-10T05:25:22.266Z,65.97
2019-01-10T05:26:02.863Z,66.06
2019-01-10T05:26:43.472Z,65.58
2019-01-10T05:27:24.097Z,65.88
2019-01-10T05:28:04.844Z,65.49
2019-01-10T05:28:45.369Z,65.3
2019-01-10T05:29:25.979Z,65.39
2019-01-10T05:30:06.610Z,65.3
2019-01-10T05:30:47.293Z,65.49
2019-01-10T05:31:28.038Z,65.58
2019-01-10T05:32:08.660Z,65.68
2019-01-10T05:32:49.270Z,65.39
2019-01-10T05:33:29.902Z,65.49
2019-01-10T05:34:10.509Z,65.68
2019-01-10T05:34:51.133Z,65.68
2019-01-10T05:35:31.735Z,65.58
2019-01-10T05:36:12.359Z,65.3
2019-01-10T05:36:52.991Z,65.3
2019-01-10T05:37:33.619Z,65.39
2019-01-10T05:38:14.227Z,65.49
2019-01-10T05:38:54.876Z,65.49
2019-01-10T05:39:35.470Z,65.49
2019-01-10T05:40:16.076Z,65.2
2019-01-10T05:40:56.729Z,65.39
2019-01-10T05:41:37.371Z,65.68
2019-01-10T05:42:17.982Z,65.58
2019-01-10T05:42:58.591Z,65.3
2019-01-10T05:43:39.222Z,65.39
2019-01-10T05:44:26.365Z,65.68
2019-01-10T05:45:00.477Z,65.58
2019-01-10T05:45:41.139Z,65.68
2019-01-10T05:46:21.783Z,65.88
2019-01-10T05:47:02.385Z,65.68
2019-01-10T05:47:43.359Z,65.49
2019-01-10T05:48:23.650Z,65.58
2019-01-10T05:49:04.276Z,65.58
2019-01-10T05:49:44.909Z,65.49
2019-01-10T05:50:25.517Z,65.49
2019-01-10T05:51:06.132Z,65.3
2019-01-10T05:51:46.763Z,65.68
2019-01-10T05:52:27.358Z,65.68
2019-01-10T05:53:08.007Z,65.68
2019-01-10T05:53:48.603Z,65.49
2019-01-10T05:54:29.240Z,65.78
2019-01-10T05:55:09.875Z,65.58
2019-01-10T05:55:50.473Z,65.58
2019-01-10T05:56:31.083Z,65.97
2019-01-10T05:57:11.715Z,65.11
2019-01-10T05:57:52.335Z,65.2
2019-01-10T05:58:32.945Z,65.01
2019-01-10T05:59:13.647Z,65.39
2019-01-10T05:59:54.208Z,65.2
2019-01-10T06:01:49.347Z,64.92
2019-01-10T06:02:29.953Z,65.11
2019-01-10T06:03:10.576Z,64.92
2019-01-10T06:03:53.316Z,65.01
2019-01-10T06:04:31.860Z,65.01
2019-01-10T06:05:12.472Z,64.82
2019-01-10T06:05:53.096Z,64.92
2019-01-10T06:06:33.697Z,65.11
2019-01-10T06:07:14.324Z,65.01
2019-01-10T06:07:54.933Z,64.82
2019-01-10T06:08:35.521Z,64.92
2019-01-10T06:09:16.135Z,65.11
2019-01-10T06:09:56.763Z,64.92
2019-01-10T06:10:37.387Z,65.01
2019-01-10T06:11:18.016Z,64.63
2019-01-10T06:11:58.639Z,65.2
2019-01-10T06:12:39.269Z,64.92
2019-01-10T06:13:19.897Z,65.2
2019-01-10T06:14:00.503Z,65.3
2019-01-10T06:14:41.085Z,65.3
2019-01-10T06:15:21.699Z,65.01
2019-01-10T06:16:02.297Z,65.49
2019-01-10T06:16:45.120Z,65.39
2019-01-10T06:17:23.514Z,65.01
2019-01-10T06:18:04.147Z,65.2
2019-01-10T06:18:44.735Z,65.01
2019-01-10T06:19:26.840Z,65.49
2019-01-10T06:20:06.011Z,65.01
2019-01-10T06:20:46.609Z,65.49
2019-01-10T06:21:27.217Z,65.49
2019-01-10T06:22:07.797Z,65.3
2019-01-10T06:22:48.425Z,65.68
2019-01-10T06:23:29.021Z,65.3
2019-01-10T06:24:09.622Z,65.2
2019-01-10T06:24:50.286Z,65.01
2019-01-10T06:25:30.931Z,64.72
2019-01-10T06:26:11.540Z,64.72
2019-01-10T06:26:52.172Z,64.72
2019-01-10T06:27:32.801Z,65.49
2019-01-10T06:28:13.451Z,65.2
2019-01-10T06:28:54.064Z,65.2
2019-01-10T06:29:34.681Z,65.49
2019-01-10T06:30:15.307Z,64.72
2019-01-10T06:30:55.932Z,65.01
2019-01-10T06:31:36.537Z,65.39
2019-01-10T06:32:17.143Z,65.39
2019-01-10T06:32:57.755Z,64.43
2019-01-10T06:33:38.375Z,65.2
2019-01-10T06:34:19.022Z,64.43
2019-01-10T06:34:59.631Z,64.72
2019-01-10T06:35:40.252Z,64.43
2019-01-10T06:36:20.865Z,64.72
2019-01-10T06:37:01.463Z,65.2
2019-01-10T06:37:42.067Z,64.43
2019-01-10T06:38:22.694Z,64.92
2019-01-10T06:39:03.315Z,65.11
2019-01-10T06:39:43.972Z,64.92
2019-01-10T06:40:24.597Z,64.72
2019-01-10T06:41:05.231Z,64.72
2019-01-10T06:41:45.828Z,64.72
2019-01-10T06:42:26.439Z,64.43
2019-01-10T06:43:07.055Z,64.92
2019-01-10T06:43:47.654Z,64.72
2019-01-10T06:44:28.259Z,64.72
2019-01-10T06:45:08.881Z,65.01
2019-01-10T06:45:49.549Z,64.82
2019-01-10T06:46:31.233Z,64.92
2019-01-10T06:47:10.778Z,64.63
2019-01-10T06:47:51.391Z,64.82
2019-01-10T06:48:32.016Z,64.72
2019-01-10T06:49:12.642Z,64.63
2019-01-10T06:49:53.275Z,64.92
2019-01-10T06:50:33.909Z,64.92
2019-01-10T06:51:14.530Z,64.63
2019-01-10T06:51:55.155Z,64.92
2019-01-10T06:52:35.756Z,64.92
2019-01-10T06:53:16.397Z,65.2
2019-01-10T06:53:57.007Z,65.01
2019-01-10T06:54:37.613Z,64.92
2019-01-10T06:55:18.228Z,65.11
2019-01-10T06:55:58.854Z,64.63
2019-01-10T06:56:39.477Z,64.92
2019-01-10T06:57:20.078Z,64.72
2019-01-10T06:58:00.690Z,64.72
2019-01-10T06:58:41.299Z,64.43
2019-01-10T06:59:21.909Z,64.63
2019-01-10T07:00:02.540Z,65.11
2019-01-10T07:00:43.163Z,64.72
2019-01-10T07:01:23.769Z,64.43
2019-01-10T07:02:04.403Z,64.43
2019-01-10T07:02:45.009Z,64.53
2019-01-10T07:03:25.700Z,64.25
2019-01-10T07:04:06.259Z,64.25
2019-01-10T07:04:46.865Z,64.34
2019-01-10T07:05:27.473Z,64.15
2019-01-10T07:06:08.097Z,64.43
2019-01-10T07:06:48.704Z,64.53
2019-01-10T07:07:29.333Z,64.43
2019-01-10T07:08:09.951Z,64.25
2019-01-10T07:08:50.541Z,64.15
2019-01-10T07:09:31.141Z,63.96
2019-01-10T07:10:11.746Z,64.25
2019-01-10T07:10:52.381Z,64.15
2019-01-10T07:11:33.027Z,63.96
2019-01-10T07:12:13.647Z,63.96
2019-01-10T07:12:54.257Z,64.34
2019-01-10T07:13:34.875Z,64.05
2019-01-10T07:14:15.499Z,64.15
2019-01-10T07:14:56.109Z,64.53
2019-01-10T07:15:36.705Z,64.43
2019-01-10T07:16:17.305Z,64.15
2019-01-10T07:16:57.946Z,64.43
2019-01-10T07:17:38.562Z,64.15
2019-01-10T07:18:19.200Z,64.53
2019-01-10T07:18:59.817Z,63.96
2019-01-10T07:19:40.485Z,64.25
2019-01-10T07:20:21.097Z,64.05
2019-01-10T07:21:01.707Z,64.34
2019-01-10T07:21:42.332Z,64.34
2019-01-10T07:22:22.933Z,63.96
2019-01-10T07:23:03.529Z,64.43
2019-01-10T07:23:44.183Z,64.43
2019-01-10T07:24:24.793Z,64.34
2019-01-10T07:25:05.422Z,64.25
2019-01-10T07:25:46.032Z,64.43
2019-01-10T07:26:26.630Z,64.15
2019-01-10T07:27:07.237Z,64.05
2019-01-10T07:27:47.848Z,64.05
2019-01-10T07:28:28.484Z,63.76
2019-01-10T07:29:09.094Z,63.76
2019-01-10T07:29:49.717Z,63.67
2019-01-10T07:30:35.682Z,63.86
2019-01-10T07:31:10.927Z,63.76
2019-01-10T07:31:51.543Z,63.67
2019-01-10T07:32:32.139Z,63.86
2019-01-10T07:33:12.747Z,63.86
2019-01-10T07:33:53.383Z,64.15
2019-01-10T07:34:34.078Z,63.76
2019-01-10T07:35:14.700Z,64.05
2019-01-10T07:35:55.329Z,63.86
2019-01-10T07:36:35.965Z,63.48
2019-01-10T07:37:16.799Z,63.96
2019-01-10T07:37:57.456Z,64.05
2019-01-10T07:38:38.088Z,63.86
2019-01-10T07:39:18.728Z,63.67
2019-01-10T07:39:59.363Z,63.48
2019-01-10T07:40:39.992Z,63.48
2019-01-10T07:41:20.641Z,63.39
2019-01-10T07:42:01.230Z,63.29
2019-01-10T07:42:41.863Z,63.39
2019-01-10T07:43:22.497Z,63.67
2019-01-10T07:44:03.096Z,63.57
2019-01-10T07:44:43.694Z,63.39
2019-01-10T07:45:24.326Z,63.29
2019-01-10T07:46:04.952Z,63.19
2019-01-10T07:46:45.586Z,63.29
2019-01-10T07:47:26.324Z,63.19
2019-01-10T07:48:06.933Z,63.39
2019-01-10T07:48:47.548Z,63.1
2019-01-10T07:49:28.156Z,63.29
2019-01-10T07:50:08.770Z,63.39
2019-01-10T07:50:49.385Z,63.48
2019-01-10T07:51:30.018Z,63.39
2019-01-10T07:52:10.610Z,63.39
2019-01-10T07:52:51.281Z,63.39
2019-01-10T07:53:31.883Z,63.29
2019-01-10T07:54:12.511Z,63.48
2019-01-10T07:54:53.132Z,63.19
2019-01-10T07:55:33.745Z,63.48
2019-01-10T07:56:14.399Z,63.29
2019-01-10T07:56:55.030Z,63.57
2019-01-10T07:57:35.682Z,63.48
2019-01-10T07:58:16.295Z,63.48
2019-01-10T07:58:56.935Z,63.29
2019-01-10T07:59:37.579Z,63.57
2019-01-10T08:00:18.204Z,63.57
2019-01-10T08:00:58.804Z,63.29
2019-01-10T08:01:39.420Z,63.57
2019-01-10T08:02:20.026Z,63.39
2019-01-10T08:03:00.650Z,63.48
2019-01-10T08:03:41.268Z,63.39
2019-01-10T08:04:21.887Z,63.57
2019-01-10T08:05:02.521Z,63.29
2019-01-10T08:05:43.119Z,63.19
2019-01-10T08:06:23.723Z,63.57
2019-01-10T08:07:04.352Z,63.67
2019-01-10T08:07:44.971Z,63.39
2019-01-10T08:08:25.569Z,63.39
2019-01-10T08:09:06.177Z,63.39
2019-01-10T08:09:46.967Z,63.39
2019-01-10T08:10:27.562Z,63.39
2019-01-10T08:11:08.196Z,63.57
2019-01-10T08:11:48.802Z,63.39
2019-01-10T08:12:29.406Z,63.39
2019-01-10T08:13:10.017Z,63.29
2019-01-10T08:13:50.709Z,63
2019-01-10T08:14:31.452Z,63
2019-01-10T08:15:12.204Z,62.9
2019-01-10T08:15:52.851Z,63
2019-01-10T08:16:35.356Z,63
2019-01-10T08:17:16.072Z,62.9
2019-01-10T08:17:54.794Z,62.9
2019-01-10T08:18:35.428Z,63
2019-01-10T08:19:16.054Z,63
2019-01-10T08:19:56.697Z,62.9
2019-01-10T08:20:37.298Z,62.81
2019-01-10T08:21:18.108Z,63.1
2019-01-10T08:21:58.673Z,62.9
2019-01-10T08:22:39.327Z,63.48
2019-01-10T08:23:19.912Z,63.19
2019-01-10T08:24:00.520Z,63
2019-01-10T08:24:41.170Z,63
2019-01-10T08:25:21.817Z,63
2019-01-10T08:26:02.524Z,63
2019-01-10T08:26:43.015Z,62.81
2019-01-10T08:27:23.624Z,63
2019-01-10T08:28:04.256Z,63
2019-01-10T08:28:44.884Z,62.9
2019-01-10T08:29:25.482Z,62.81
2019-01-10T08:30:06.100Z,62.9
2019-01-10T08:30:46.737Z,62.9
2019-01-10T08:31:27.335Z,62.71
2019-01-10T08:32:07.988Z,63
2019-01-10T08:32:48.603Z,63.1
2019-01-10T08:33:29.279Z,63.1
2019-01-10T08:34:09.906Z,62.9
2019-01-10T08:34:51.287Z,63.1
2019-01-10T08:35:31.136Z,63.19
2019-01-10T08:36:11.747Z,63
2019-01-10T08:36:52.346Z,63.1
2019-01-10T08:37:33.011Z,63
2019-01-10T08:38:13.611Z,63.1
2019-01-10T08:38:54.392Z,63
2019-01-10T08:39:35.018Z,62.71
2019-01-10T08:40:15.663Z,62.9
2019-01-10T08:40:56.300Z,62.9
2019-01-10T08:41:36.968Z,62.9
2019-01-10T08:42:17.656Z,63.19
2019-01-10T08:42:58.437Z,63.29
2019-01-10T08:43:39.048Z,63.19
2019-01-10T08:44:19.804Z,62.81
2019-01-10T08:45:00.285Z,63.19
2019-01-10T08:45:40.850Z,63.29
2019-01-10T08:46:21.491Z,62.81
2019-01-10T08:47:02.088Z,62.81